Time;durP1;ratioP1;P1;durP2;ratioP2;P2;SDS_P1;SDS_P2;PMS_P1;PMS_P2;Temp;Humidity;BMP_temperature;BMP_pressure;BME280_temperature;BME280_humidity;BME280_pressure;Samples;Min_cycle;Max_cycle;Signal;HPM_P1;HPM_P2
2023/07/11 00:01:42;;;;;;;4.00;2.53;;;;;;;;;;5103294;28;20103;-59
2023/07/11 00:04:09;;;;;;;15.30;2.30;;;;;;;;;;5115050;28;20358;-58
2023/07/11 00:06:35;;;;;;;5.23;2.13;;;;;;;;;;5100590;28;20478;-59
2023/07/11 00:09:02;;;;;;;3.80;2.33;;;;;;;;;;5087783;28;20390;-59
2023/07/11 00:11:29;;;;;;;4.23;2.33;;;;;;;;;;5088356;28;20115;-59
2023/07/11 00:13:56;;;;;;;3.63;2.03;;;;;;;;;;5088969;28;20024;-58
2023/07/11 00:16:23;;;;;;;6.67;2.17;;;;;;;;;;5098725;28;20076;-59
2023/07/11 00:18:49;;;;;;;5.20;2.10;;;;;;;;;;5114759;28;20020;-58
2023/07/11 00:21:16;;;;;;;3.23;2.37;;;;;;;;;;5105121;28;20048;-59
2023/07/11 00:23:43;;;;;;;4.03;2.60;;;;;;;;;;5094035;28;20032;-59
2023/07/11 00:26:10;;;;;;;2.90;2.30;;;;;;;;;;5093654;28;20101;-58
2023/07/11 00:28:37;;;;;;;3.57;2.07;;;;;;;;;;5092817;28;20036;-58
2023/07/11 00:31:03;;;;;;;4.43;2.50;;;;;;;;;;5094718;28;20156;-58
2023/07/11 00:33:30;;;;;;;2.53;2.07;;;;;;;;;;5108463;28;20040;-59
2023/07/11 00:35:57;;;;;;;3.63;2.57;;;;;;;;;;5108986;28;20599;-59
2023/07/11 00:38:24;;;;;;;3.37;2.47;;;;;;;;;;5109229;28;20020;-59
2023/07/11 00:40:51;;;;;;;3.33;1.90;;;;;;;;;;5109619;28;20027;-58
2023/07/11 00:43:19;;;;;;;4.33;2.43;;;;;;;;;;5093043;28;20017;-58
2023/07/11 00:46:04;;;;;;;4.07;2.13;;;;;;;;;;5094052;28;20028;-58
2023/07/11 00:48:35;;;;;;;2.00;1.42;;;;;;;;;;5093664;28;20020;-58
2023/07/11 00:51:03;;;;;;;3.10;1.97;;;;;;;;;;5090882;28;20489;-59
2023/07/11 00:53:31;;;;;;;4.20;1.93;;;;;;;;;;5106597;28;20097;-59
2023/07/11 00:56:00;;;;;;;4.17;2.03;;;;;;;;;;5108267;28;20502;-58
2023/07/11 00:58:27;;;;;;;2.63;1.80;;;;;;;;;;5108243;28;20482;-59
2023/07/11 01:00:55;;;;;;;2.47;1.87;;;;;;;;;;5109109;27;20032;-58
2023/07/11 01:03:23;;;;;;;5.40;2.20;;;;;;;;;;5111719;27;20541;-58
2023/07/11 01:05:51;;;;;;;1.83;1.23;;;;;;;;;;5113935;27;20106;-58
2023/07/11 01:08:17;;;;;;;2.37;1.90;;;;;;;;;;5113595;28;20027;-58
2023/07/11 01:10:44;;;;;;;26.97;2.10;;;;;;;;;;5113675;28;20046;-58
2023/07/11 01:13:11;;;;;;;2.37;1.57;;;;;;;;;;5112608;28;20039;-58
2023/07/11 01:15:38;;;;;;;2.20;1.53;;;;;;;;;;5089661;28;20043;-59
2023/07/11 01:18:05;;;;;;;1.67;1.40;;;;;;;;;;5087922;28;20022;-58
2023/07/11 01:20:38;;;;;;;5.90;2.73;;;;;;;;;;5087658;28;20055;-58
2023/07/11 01:23:04;;;;;;;3.30;2.20;;;;;;;;;;5087644;28;20115;-59
2023/07/11 01:25:31;;;;;;;2.47;1.50;;;;;;;;;;5094659;28;20024;-58
2023/07/11 01:27:58;;;;;;;3.63;2.43;;;;;;;;;;5113433;28;20034;-58
2023/07/11 01:30:25;;;;;;;3.43;2.03;;;;;;;;;;5113498;28;20016;-58
2023/07/11 01:32:51;;;;;;;3.80;2.30;;;;;;;;;;5112824;28;20060;-58
2023/07/11 01:35:18;;;;;;;2.90;1.80;;;;;;;;;;5112664;28;20086;-58
2023/07/11 01:37:45;;;;;;;2.50;1.87;;;;;;;;;;5100625;28;20032;-59
2023/07/11 01:40:12;;;;;;;4.33;2.23;;;;;;;;;;5088190;28;20351;-58
2023/07/11 01:42:39;;;;;;;5.87;2.40;;;;;;;;;;5086756;28;20028;-59
2023/07/11 01:45:06;;;;;;;6.57;1.80;;;;;;;;;;5086991;28;20095;-58
2023/07/11 01:47:33;;;;;;;9.43;2.80;;;;;;;;;;5092486;28;20024;-58
2023/07/11 01:50:00;;;;;;;2.90;2.13;;;;;;;;;;5097956;28;20019;-58
2023/07/11 01:52:26;;;;;;;2.10;1.77;;;;;;;;;;5112900;28;20035;-58
2023/07/11 01:54:53;;;;;;;2.47;1.80;;;;;;;;;;5113018;28;20107;-58
2023/07/11 01:57:20;;;;;;;1.73;1.27;;;;;;;;;;5113011;28;20020;-58
2023/07/11 01:59:47;;;;;;;5.43;2.17;;;;;;;;;;5107212;28;20024;-58
2023/07/11 02:02:14;;;;;;;2.30;1.70;;;;;;;;;;5101325;28;20028;-58
2023/07/11 02:04:41;;;;;;;3.97;2.33;;;;;;;;;;5105096;28;20053;-58
2023/07/11 02:07:08;;;;;;;2.33;1.50;;;;;;;;;;5107107;28;20047;-58
2023/07/11 02:09:35;;;;;;;2.60;1.80;;;;;;;;;;5099115;28;20024;-59
2023/07/11 02:12:01;;;;;;;4.13;1.63;;;;;;;;;;5092350;28;20034;-58
2023/07/11 02:14:28;;;;;;;2.87;1.80;;;;;;;;;;5092097;28;20024;-58
2023/07/11 02:16:55;;;;;;;6.23;1.40;;;;;;;;;;5092361;28;20050;-57
2023/07/11 02:19:23;;;;;;;14.03;2.00;;;;;;;;;;5092250;28;20028;-57
2023/07/11 02:21:50;;;;;;;1.67;1.20;;;;;;;;;;5087453;28;20058;-60
2023/07/11 02:24:18;;;;;;;3.63;1.60;;;;;;;;;;5086892;28;20048;-60
2023/07/11 02:26:48;;;;;;;1.30;1.07;;;;;;;;;;5086770;28;20072;-58
2023/07/11 02:29:15;;;;;;;3.03;1.60;;;;;;;;;;5086852;28;20031;-57
2023/07/11 02:31:42;;;;;;;1.50;1.03;;;;;;;;;;5090632;28;20028;-58
2023/07/11 02:34:08;;;;;;;2.63;1.63;;;;;;;;;;5092353;28;20666;-57
2023/07/11 02:36:35;;;;;;;4.20;2.13;;;;;;;;;;5092440;28;20532;-57
2023/07/11 02:39:02;;;;;;;11.67;1.13;;;;;;;;;;5092255;28;20099;-58
2023/07/11 02:41:29;;;;;;;1.57;1.00;;;;;;;;;;5092017;28;20055;-57
2023/07/11 02:43:56;;;;;;;2.00;1.17;;;;;;;;;;5087954;28;20028;-58
2023/07/11 02:46:23;;;;;;;1.03;0.80;;;;;;;;;;5086562;28;20028;-58
2023/07/11 02:48:50;;;;;;;1.13;0.87;;;;;;;;;;5086525;28;20024;-57
2023/07/11 02:51:17;;;;;;;5.00;1.77;;;;;;;;;;5086625;28;20089;-58
2023/07/11 02:53:44;;;;;;;1.37;1.10;;;;;;;;;;5090155;28;20024;-57
2023/07/11 02:56:11;;;;;;;1.67;1.20;;;;;;;;;;5092204;28;20051;-58
2023/07/11 02:58:38;;;;;;;1.30;1.10;;;;;;;;;;5091860;28;20028;-57
2023/07/11 03:01:05;;;;;;;2.80;1.30;;;;;;;;;;5091959;28;20386;-58
2023/07/11 03:03:32;;;;;;;1.80;1.30;;;;;;;;;;5096086;28;20531;-57
2023/07/11 03:05:59;;;;;;;2.30;1.33;;;;;;;;;;5108774;28;20040;-57
2023/07/11 03:08:25;;;;;;;2.13;1.57;;;;;;;;;;5106825;28;20528;-58
2023/07/11 03:10:52;;;;;;;3.07;1.83;;;;;;;;;;5086440;28;20028;-57
2023/07/11 03:13:19;;;;;;;10.03;1.30;;;;;;;;;;5086278;28;20032;-57
2023/07/11 03:15:46;;;;;;;3.37;1.53;;;;;;;;;;5091546;28;20581;-57
2023/07/11 03:18:13;;;;;;;2.23;1.57;;;;;;;;;;5095448;28;20047;-58
2023/07/11 03:20:40;;;;;;;2.47;1.67;;;;;;;;;;5095044;28;20028;-57
2023/07/11 03:23:08;;;;;;;1.83;1.20;;;;;;;;;;5095214;28;20382;-57
2023/07/11 03:25:35;;;;;;;1.77;1.23;;;;;;;;;;5095404;28;20099;-58
2023/07/11 03:28:02;;;;;;;2.60;1.53;;;;;;;;;;5092297;28;20027;-59
2023/07/11 03:30:28;;;;;;;1.63;1.17;;;;;;;;;;5090212;28;20102;-60
2023/07/11 03:32:55;;;;;;;4.33;1.70;;;;;;;;;;5089773;28;20141;-60
2023/07/11 03:35:22;;;;;;;3.27;2.00;;;;;;;;;;5091059;28;20026;-60
2023/07/11 03:37:49;;;;;;;4.83;1.80;;;;;;;;;;5091995;28;20028;-57
2023/07/11 03:40:16;;;;;;;3.57;1.33;;;;;;;;;;5114478;28;20027;-58
2023/07/11 03:42:43;;;;;;;1.53;1.13;;;;;;;;;;5115361;28;20015;-57
2023/07/11 03:45:09;;;;;;;6.50;1.83;;;;;;;;;;5115411;28;20028;-58
2023/07/11 03:47:36;;;;;;;8.43;1.10;;;;;;;;;;5108909;28;20487;-58
2023/07/11 03:50:03;;;;;;;8.80;1.80;;;;;;;;;;5092239;28;20467;-57
2023/07/11 03:52:30;;;;;;;2.43;1.30;;;;;;;;;;5090729;28;20031;-57
2023/07/11 03:54:57;;;;;;;15.43;1.30;;;;;;;;;;5089095;28;20394;-58
2023/07/11 03:57:23;;;;;;;1.53;1.33;;;;;;;;;;5093825;28;20028;-57
2023/07/11 03:59:50;;;;;;;1.60;1.30;;;;;;;;;;5111715;28;20023;-58
2023/07/11 04:02:17;;;;;;;2.97;1.57;;;;;;;;;;5113293;28;20023;-59
2023/07/11 04:04:44;;;;;;;2.07;1.23;;;;;;;;;;5112794;28;20032;-58
2023/07/11 04:07:11;;;;;;;1.73;1.43;;;;;;;;;;5114953;28;20114;-57
2023/07/11 04:09:40;;;;;;;1.50;1.30;;;;;;;;;;5115060;28;20398;-57
2023/07/11 04:12:07;;;;;;;1.70;1.30;;;;;;;;;;5112241;28;20051;-57
2023/07/11 04:14:34;;;;;;;1.70;1.03;;;;;;;;;;5109731;28;20035;-58
2023/07/11 04:17:01;;;;;;;2.07;1.27;;;;;;;;;;5109561;28;20048;-57
2023/07/11 04:19:28;;;;;;;2.00;1.33;;;;;;;;;;5109234;28;20032;-57
2023/07/11 04:21:55;;;;;;;1.43;1.17;;;;;;;;;;5110700;28;20390;-58
2023/07/11 04:24:21;;;;;;;0.83;0.80;;;;;;;;;;5114413;28;20665;-57
2023/07/11 04:26:48;;;;;;;1.10;0.90;;;;;;;;;;5114544;28;20031;-57
2023/07/11 04:29:15;;;;;;;1.30;1.17;;;;;;;;;;5114324;28;20031;-58
2023/07/11 04:31:42;;;;;;;1.83;1.30;;;;;;;;;;5114536;28;20038;-57
2023/07/11 04:34:08;;;;;;;3.80;1.20;;;;;;;;;;5110789;28;20065;-58
2023/07/11 04:36:35;;;;;;;13.23;2.43;;;;;;;;;;5088621;28;20035;-58
2023/07/11 04:39:03;;;;;;;1.70;0.90;;;;;;;;;;5088789;28;20489;-58
2023/07/11 04:41:30;;;;;;;2.17;1.40;;;;;;;;;;5088375;28;20034;-57
2023/07/11 04:43:56;;;;;;;1.33;1.13;;;;;;;;;;5098701;28;20092;-58
2023/07/11 04:46:23;;;;;;;1.70;1.30;;;;;;;;;;5114142;28;20020;-57
2023/07/11 04:48:50;;;;;;;1.43;1.00;;;;;;;;;;5097974;28;20093;-57
2023/07/11 04:51:17;;;;;;;0.93;0.83;;;;;;;;;;5093641;28;20024;-57
2023/07/11 04:53:44;;;;;;;2.67;1.53;;;;;;;;;;5093771;28;20032;-58
2023/07/11 04:56:11;;;;;;;3.40;2.30;;;;;;;;;;5093073;28;20050;-57
2023/07/11 04:58:38;;;;;;;2.77;1.87;;;;;;;;;;5088240;28;20103;-58
2023/07/11 05:01:12;;;;;;;5.27;2.97;;;;;;;;;;5088055;28;20028;-58
2023/07/11 05:03:39;;;;;;;4.77;2.83;;;;;;;;;;5088312;28;20036;-59
2023/07/11 05:06:06;;;;;;;3.50;2.00;;;;;;;;;;5088241;28;20020;-58
2023/07/11 05:08:33;;;;;;;4.33;2.27;;;;;;;;;;5093443;28;20021;-58
2023/07/11 05:11:01;;;;;;;6.00;2.73;;;;;;;;;;5093321;28;20035;-58
2023/07/11 05:13:29;;;;;;;2.53;1.67;;;;;;;;;;5093262;28;20505;-58
2023/07/11 05:16:00;;;;;;;4.50;1.80;;;;;;;;;;5092825;28;20020;-59
2023/07/11 05:18:27;;;;;;;7.07;2.03;;;;;;;;;;5076826;28;20032;-58
2023/07/11 05:20:57;;;;;;;2.70;1.43;;;;;;;;;;5074323;28;20028;-58
2023/07/11 05:23:24;;;;;;;5.07;2.40;;;;;;;;;;5087612;28;20526;-58
2023/07/11 05:25:51;;;;;;;1.87;1.37;;;;;;;;;;5087706;28;20028;-58
2023/07/11 05:28:18;;;;;;;1.47;1.20;;;;;;;;;;5087699;28;20374;-58
2023/07/11 05:30:45;;;;;;;1.50;1.07;;;;;;;;;;5092506;28;20047;-58
2023/07/11 05:33:12;;;;;;;11.27;2.10;;;;;;;;;;5092698;28;20115;-58
2023/07/11 05:35:51;;;;;;;1.23;0.83;;;;;;;;;;5092889;28;20027;-58
2023/07/11 05:38:17;;;;;;;1.83;1.00;;;;;;;;;;5092210;28;20031;-58
2023/07/11 05:40:44;;;;;;;0.70;0.70;;;;;;;;;;5092173;28;20031;-58
2023/07/11 05:43:11;;;;;;;1.17;1.07;;;;;;;;;;5105534;28;20032;-58
2023/07/11 05:45:38;;;;;;;2.07;1.40;;;;;;;;;;5107426;28;20038;-57
2023/07/11 05:48:04;;;;;;;1.43;1.17;;;;;;;;;;5107696;28;20434;-58
2023/07/11 05:50:31;;;;;;;3.37;1.20;;;;;;;;;;5107346;28;20031;-58
2023/07/11 05:52:58;;;;;;;3.57;1.40;;;;;;;;;;5112470;28;20107;-57
2023/07/11 05:55:25;;;;;;;5.50;1.37;;;;;;;;;;5112947;28;20420;-58
2023/07/11 05:57:52;;;;;;;1.83;1.43;;;;;;;;;;5112852;28;20406;-58
2023/07/11 06:00:19;;;;;;;3.77;0.93;;;;;;;;;;5113132;28;20047;-57
2023/07/11 06:02:45;;;;;;;10.40;1.00;;;;;;;;;;5112307;28;20028;-58
2023/07/11 06:05:12;;;;;;;2.57;1.57;;;;;;;;;;5107293;28;20034;-58
2023/07/11 06:07:39;;;;;;;1.50;1.27;;;;;;;;;;5107135;28;20062;-58
2023/07/11 06:10:06;;;;;;;4.83;1.40;;;;;;;;;;5107375;28;20027;-57
2023/07/11 06:12:33;;;;;;;1.63;0.93;;;;;;;;;;5106841;28;20082;-58
2023/07/11 06:15:00;;;;;;;1.77;1.27;;;;;;;;;;5111877;28;20465;-58
2023/07/11 06:17:27;;;;;;;2.53;1.13;;;;;;;;;;5112413;28;20359;-58
2023/07/11 06:19:54;;;;;;;7.93;1.20;;;;;;;;;;5112586;28;20019;-58
2023/07/11 06:22:21;;;;;;;4.53;1.27;;;;;;;;;;5111979;28;20428;-58
2023/07/11 06:24:48;;;;;;;10.17;1.63;;;;;;;;;;5072509;28;20016;-57
2023/07/11 06:27:14;;;;;;;1.80;1.20;;;;;;;;;;5067056;28;20025;-58
2023/07/11 06:29:41;;;;;;;0.73;0.63;;;;;;;;;;5066704;28;20025;-57
2023/07/11 06:32:08;;;;;;;8.13;1.30;;;;;;;;;;5066405;28;20391;-58
2023/07/11 06:34:35;;;;;;;1.30;0.90;;;;;;;;;;5084259;28;20101;-58
2023/07/11 06:37:02;;;;;;;10.47;1.37;;;;;;;;;;5090550;28;20035;-58
2023/07/11 06:39:28;;;;;;;1.47;1.30;;;;;;;;;;5092119;28;20024;-57
2023/07/11 06:41:55;;;;;;;4.10;1.50;;;;;;;;;;5092033;28;20020;-58
2023/07/11 06:44:22;;;;;;;5.90;1.23;;;;;;;;;;5092093;28;20057;-58
2023/07/11 06:46:49;;;;;;;6.13;1.77;;;;;;;;;;5092229;28;20028;-57
2023/07/11 06:49:15;;;;;;;9.80;0.80;;;;;;;;;;5089486;28;20086;-57
2023/07/11 06:51:42;;;;;;;0.90;0.73;;;;;;;;;;5090551;28;20370;-58
2023/07/11 06:54:09;;;;;;;5.03;1.70;;;;;;;;;;5090494;28;20536;-58
2023/07/11 06:56:36;;;;;;;1.53;1.33;;;;;;;;;;5090396;28;20028;-58
2023/07/11 06:59:03;;;;;;;1.90;1.63;;;;;;;;;;5094026;28;20027;-58
2023/07/11 07:01:29;;;;;;;2.33;1.80;;;;;;;;;;5095772;28;20217;-58
2023/07/11 07:03:56;;;;;;;2.43;1.60;;;;;;;;;;5095856;28;20028;-57
2023/07/11 07:06:23;;;;;;;4.13;2.13;;;;;;;;;;5095702;28;20474;-59
2023/07/11 07:08:50;;;;;;;4.43;2.00;;;;;;;;;;5095573;28;20031;-58
2023/07/11 07:11:17;;;;;;;1.60;1.20;;;;;;;;;;5091989;28;20106;-58
2023/07/11 07:13:44;;;;;;;2.10;1.50;;;;;;;;;;5090230;28;20096;-58
2023/07/11 07:16:11;;;;;;;2.17;1.67;;;;;;;;;;5090057;28;20048;-58
2023/07/11 07:18:39;;;;;;;8.70;2.03;;;;;;;;;;5090168;28;20032;-57
2023/07/11 07:21:06;;;;;;;1.70;1.33;;;;;;;;;;5093003;28;20478;-57
2023/07/11 07:23:36;;;;;;;1.53;1.13;;;;;;;;;;5094913;28;20019;-58
2023/07/11 07:26:04;;;;;;;3.50;1.97;;;;;;;;;;5095273;28;20502;-57
2023/07/11 07:28:31;;;;;;;2.57;1.27;;;;;;;;;;5095537;28;20021;-57
2023/07/11 07:30:59;;;;;;;2.27;1.87;;;;;;;;;;5095394;28;20099;-58
2023/07/11 07:33:26;;;;;;;2.10;1.50;;;;;;;;;;5091506;28;20040;-58
2023/07/11 07:35:57;;;;;;;2.07;1.70;;;;;;;;;;5089800;28;20421;-57
2023/07/11 07:38:27;;;;;;;2.37;1.70;;;;;;;;;;5089403;28;20027;-58
2023/07/11 07:40:55;;;;;;;2.70;1.90;;;;;;;;;;5089633;28;20105;-58
2023/07/11 07:43:22;;;;;;;2.73;2.30;;;;;;;;;;5092620;28;20032;-58
2023/07/11 07:45:52;;;;;;;2.40;2.00;;;;;;;;;;5094992;28;20020;-57
2023/07/11 07:48:19;;;;;;;10.50;2.00;;;;;;;;;;5095300;28;20056;-57
2023/07/11 07:50:46;;;;;;;2.73;2.07;;;;;;;;;;5115223;28;20040;-57
2023/07/11 07:53:14;;;;;;;3.13;2.40;;;;;;;;;;5114834;28;20070;-58
2023/07/11 07:55:41;;;;;;;3.60;2.13;;;;;;;;;;5111878;28;20076;-58
2023/07/11 07:58:08;;;;;;;2.60;2.13;;;;;;;;;;5109692;28;20031;-57
2023/07/11 08:00:35;;;;;;;2.90;2.33;;;;;;;;;;5108652;28;20111;-58
2023/07/11 08:03:01;;;;;;;4.07;2.03;;;;;;;;;;5109862;28;20027;-58
2023/07/11 08:05:28;;;;;;;2.80;2.33;;;;;;;;;;5112325;28;20028;-58
2023/07/11 08:07:55;;;;;;;5.90;2.40;;;;;;;;;;5114709;28;20016;-58
2023/07/11 08:10:22;;;;;;;4.10;1.87;;;;;;;;;;5114524;28;20023;-57
2023/07/11 08:12:48;;;;;;;2.73;2.20;;;;;;;;;;5115148;28;20031;-58
2023/07/11 08:15:15;;;;;;;3.23;2.07;;;;;;;;;;5115044;28;20473;-58
2023/07/11 08:17:45;;;;;;;8.90;3.00;;;;;;;;;;5111822;28;20398;-58
2023/07/11 08:20:13;;;;;;;18.67;3.47;;;;;;;;;;5094351;28;20382;-57
2023/07/11 08:22:40;;;;;;;4.17;2.60;;;;;;;;;;5088755;28;20030;-58
2023/07/11 08:25:07;;;;;;;2.23;1.73;;;;;;;;;;5088566;28;20488;-57
2023/07/11 08:27:33;;;;;;;3.87;2.83;;;;;;;;;;5091502;28;20028;-57
2023/07/11 08:30:00;;;;;;;3.63;2.97;;;;;;;;;;5106922;28;20031;-57
2023/07/11 08:32:27;;;;;;;3.67;2.90;;;;;;;;;;5114526;28;20038;-57
2023/07/11 08:34:54;;;;;;;3.27;2.23;;;;;;;;;;5114531;28;20122;-57
2023/07/11 08:37:20;;;;;;;3.73;2.70;;;;;;;;;;5114470;28;20043;-57
2023/07/11 08:39:48;;;;;;;3.23;2.57;;;;;;;;;;5099993;28;20024;-57
2023/07/11 08:42:25;;;;;;;2.20;1.83;;;;;;;;;;5088296;28;20047;-57
2023/07/11 08:44:55;;;;;;;3.20;2.27;;;;;;;;;;5088440;28;20076;-57
2023/07/11 08:47:28;;;;;;;4.70;3.20;;;;;;;;;;5088581;28;20512;-58
2023/07/11 08:50:13;;;;;;;3.73;2.67;;;;;;;;;;5102523;28;20084;-57
2023/07/11 08:52:40;;;;;;;3.00;2.60;;;;;;;;;;5114323;28;20031;-57
2023/07/11 08:55:08;;;;;;;4.30;3.03;;;;;;;;;;5114123;28;20104;-57
2023/07/11 08:57:36;;;;;;;1.87;1.57;;;;;;;;;;5113832;28;20059;-57
2023/07/11 09:00:09;;;;;;;6.10;3.40;;;;;;;;;;5101050;28;20470;-57
2023/07/11 09:02:40;;;;;;;6.73;3.70;;;;;;;;;;5089294;28;20067;-57
2023/07/11 09:05:10;;;;;;;5.43;2.53;;;;;;;;;;5088032;28;20436;-58
2023/07/11 09:07:42;;;;;;;7.83;4.10;;;;;;;;;;5087901;28;20024;-58
2023/07/11 09:10:18;;;;;;;4.73;3.83;;;;;;;;;;5100374;28;20050;-57
2023/07/11 09:12:51;;;;;;;5.60;3.47;;;;;;;;;;5110637;28;20092;-57
2023/07/11 09:15:25;;;;;;;4.63;3.33;;;;;;;;;;5113544;28;20474;-58
2023/07/11 09:17:58;;;;;;;3.43;3.03;;;;;;;;;;5097113;28;20088;-57
2023/07/11 09:20:36;;;;;;;4.83;3.67;;;;;;;;;;5093307;28;20277;-57
2023/07/11 09:23:03;;;;;;;4.23;2.67;;;;;;;;;;5092660;28;20035;-57
2023/07/11 09:25:43;;;;;;;5.07;3.27;;;;;;;;;;5087652;28;20024;-57
2023/07/11 09:28:16;;;;;;;5.83;3.87;;;;;;;;;;5089524;28;20026;-57
2023/07/11 09:30:50;;;;;;;4.07;3.20;;;;;;;;;;5088114;28;20028;-58
2023/07/11 09:33:20;;;;;;;12.30;4.17;;;;;;;;;;5106299;28;20129;-58
2023/07/11 09:35:47;;;;;;;5.33;4.40;;;;;;;;;;5111899;28;20455;-58
2023/07/11 09:38:22;;;;;;;4.33;3.40;;;;;;;;;;5093036;28;20026;-57
2023/07/11 09:40:49;;;;;;;4.03;2.80;;;;;;;;;;5098897;28;20054;-57
2023/07/11 09:43:16;;;;;;;4.00;3.13;;;;;;;;;;5113163;28;20023;-57
2023/07/11 09:45:45;;;;;;;4.07;3.50;;;;;;;;;;5111946;28;20080;-57
2023/07/11 09:48:19;;;;;;;6.00;4.03;;;;;;;;;;5088012;28;20356;-57
2023/07/11 09:51:01;;;;;;;2.92;2.58;;;;;;;;;;5087316;28;20020;-57
2023/07/11 09:53:29;;;;;;;8.80;4.37;;;;;;;;;;5087314;28;20231;-58
2023/07/11 09:55:57;;;;;;;4.47;3.03;;;;;;;;;;5087998;28;20035;-57
2023/07/11 09:58:28;;;;;;;3.80;3.13;;;;;;;;;;5112408;28;20034;-57
2023/07/11 10:00:58;;;;;;;5.63;3.67;;;;;;;;;;5113081;28;20020;-57
2023/07/11 10:03:26;;;;;;;7.13;4.27;;;;;;;;;;5112804;28;20016;-57
2023/07/11 10:05:54;;;;;;;6.63;4.60;;;;;;;;;;5112826;28;20106;-58
2023/07/11 10:08:23;;;;;;;12.00;4.63;;;;;;;;;;5091699;28;20046;-57
2023/07/11 10:10:53;;;;;;;4.57;3.43;;;;;;;;;;5086535;28;20044;-57
2023/07/11 10:13:21;;;;;;;5.17;3.83;;;;;;;;;;5086711;28;20071;-58
2023/07/11 10:15:48;;;;;;;7.03;3.37;;;;;;;;;;5086853;28;20486;-57
2023/07/11 10:18:19;;;;;;;30.47;3.67;;;;;;;;;;5105709;28;20035;-57
2023/07/11 10:20:47;;;;;;;6.87;3.90;;;;;;;;;;5112706;28;20080;-57
2023/07/11 10:23:15;;;;;;;3.00;2.67;;;;;;;;;;5111781;28;20031;-57
2023/07/11 10:25:44;;;;;;;15.50;4.17;;;;;;;;;;5112627;28;20023;-57
2023/07/11 10:28:22;;;;;;;16.17;3.40;;;;;;;;;;5095136;28;20474;-57
2023/07/11 10:30:50;;;;;;;4.07;3.30;;;;;;;;;;5089909;28;20024;-57
2023/07/11 10:33:20;;;;;;;3.67;3.03;;;;;;;;;;5086593;28;20032;-57
2023/07/11 10:35:50;;;;;;;5.63;3.57;;;;;;;;;;5086310;28;20028;-58
2023/07/11 10:38:43;;;;;;;4.60;3.53;;;;;;;;;;5104293;28;20483;-57
2023/07/11 10:41:13;;;;;;;4.43;3.50;;;;;;;;;;5109531;28;20035;-58
2023/07/11 10:43:40;;;;;;;4.73;3.13;;;;;;;;;;5101537;28;20059;-58
2023/07/11 10:46:11;;;;;;;5.30;3.80;;;;;;;;;;5091943;28;20016;-57
2023/07/11 10:48:46;;;;;;;5.17;3.20;;;;;;;;;;5092077;28;20076;-57
2023/07/11 10:51:20;;;;;;;5.60;3.42;;;;;;;;;;5092054;28;20024;-57
2023/07/11 10:54:16;;;;;;;2.97;2.50;;;;;;;;;;5098274;28;20360;-57
2023/07/11 10:56:48;;;;;;;23.27;2.55;;;;;;;;;;5089247;28;20032;-57
2023/07/11 10:59:18;;;;;;;5.13;2.93;;;;;;;;;;5106805;28;20389;-58
2023/07/11 11:01:54;;;;;;;3.57;2.33;;;;;;;;;;5103666;28;20023;-57
2023/07/11 11:04:40;;;;;;;3.33;2.17;;;;;;;;;;5091549;28;20450;-57
2023/07/11 11:07:09;;;;;;;2.40;1.95;;;;;;;;;;5092017;28;20016;-57
2023/07/11 11:09:48;;;;;;;4.30;3.40;;;;;;;;;;5091830;28;20044;-57
2023/07/11 11:12:28;;;;;;;5.07;3.23;;;;;;;;;;5097465;28;20093;-57
2023/07/11 11:15:14;;;;;;;3.60;2.70;;;;;;;;;;5087395;28;20610;-57
2023/07/11 11:17:47;;;;;;;3.93;2.30;;;;;;;;;;5078296;28;20091;-57
2023/07/11 11:20:17;;;;;;;3.53;2.20;;;;;;;;;;5086205;28;20028;-57
2023/07/11 11:22:46;;;;;;;5.17;2.80;;;;;;;;;;5086307;28;20042;-57
2023/07/11 11:25:24;;;;;;;3.20;2.37;;;;;;;;;;5087986;28;20036;-57
2023/07/11 11:27:56;;;;;;;7.70;3.97;;;;;;;;;;5102508;28;20129;-57
2023/07/11 11:30:26;;;;;;;2.77;2.07;;;;;;;;;;5111931;28;20386;-57
2023/07/11 11:33:02;;;;;;;5.33;2.30;;;;;;;;;;5111771;28;20043;-57
2023/07/11 11:35:47;;;;;;;2.77;1.87;;;;;;;;;;5112426;28;20024;-57
2023/07/11 11:38:32;;;;;;;4.90;3.50;;;;;;;;;;5097264;28;20031;-57
2023/07/11 11:41:01;;;;;;;2.72;2.40;;;;;;;;;;5089669;28;20066;-57
2023/07/11 11:43:28;;;;;;;3.17;2.20;;;;;;;;;;5089757;28;20016;-57
2023/07/11 11:45:55;;;;;;;2.87;2.57;;;;;;;;;;5089658;28;20027;-57
2023/07/11 11:48:23;;;;;;;21.20;3.47;;;;;;;;;;5107201;28;20023;-58
2023/07/11 11:50:51;;;;;;;3.00;2.30;;;;;;;;;;5114934;28;20055;-58
2023/07/11 11:53:32;;;;;;;3.20;2.40;;;;;;;;;;5114871;28;20044;-57
2023/07/11 11:56:00;;;;;;;3.80;2.60;;;;;;;;;;5115392;28;20015;-57
2023/07/11 11:58:28;;;;;;;4.40;3.37;;;;;;;;;;5099986;28;20099;-58
2023/07/11 12:00:55;;;;;;;2.97;2.20;;;;;;;;;;5089613;28;20431;-57
2023/07/11 12:03:25;;;;;;;2.73;2.03;;;;;;;;;;5089251;28;20024;-57
2023/07/11 12:05:52;;;;;;;6.23;3.27;;;;;;;;;;5088969;28;20032;-58
2023/07/11 12:08:27;;;;;;;2.63;2.07;;;;;;;;;;5109191;28;20024;-57
2023/07/11 12:10:54;;;;;;;;;;;;;;;;;;5114569;28;20030;-57
2023/07/11 12:13:29;;;;;;;7.03;2.93;;;;;;;;;;5114797;28;19919;-57
2023/07/11 12:15:57;;;;;;;2.88;2.55;;;;;;;;;;5114899;28;20049;-58
2023/07/11 12:18:23;;;;;;;1.43;1.23;;;;;;;;;;5106308;28;20355;-57
2023/07/11 12:21:07;;;;;;;2.70;2.33;;;;;;;;;;5114747;28;20047;-57
2023/07/11 12:23:34;;;;;;;3.73;2.60;;;;;;;;;;5068368;28;20032;-57
2023/07/11 12:26:11;;;;;;;2.40;2.00;;;;;;;;;;5068312;28;20032;-58
2023/07/11 12:28:39;;;;;;;2.03;1.73;;;;;;;;;;5068460;28;20417;-58
2023/07/11 12:31:15;;;;;;;3.60;2.40;;;;;;;;;;5069940;28;20471;-57
2023/07/11 12:33:42;;;;;;;5.60;3.47;;;;;;;;;;5113812;28;20478;-58
2023/07/11 12:36:21;;;;;;;2.43;2.07;;;;;;;;;;5114051;28;20030;-58
2023/07/11 12:38:53;;;;;;;4.60;3.10;;;;;;;;;;5114312;28;20482;-58
2023/07/11 12:41:31;;;;;;;4.80;3.00;;;;;;;;;;5111682;28;20076;-57
2023/07/11 12:44:00;;;;;;;4.37;3.37;;;;;;;;;;5092349;28;20054;-57
2023/07/11 12:46:35;;;;;;;5.20;3.67;;;;;;;;;;5087736;28;20043;-57
2023/07/11 12:49:05;;;;;;;4.65;3.40;;;;;;;;;;5088371;28;20093;-58
2023/07/11 12:51:34;;;;;;;4.00;3.00;;;;;;;;;;5092011;28;20024;-57
2023/07/11 12:54:11;;;;;;;17.07;3.40;;;;;;;;;;5110391;28;20567;-57
2023/07/11 12:56:43;;;;;;;6.63;3.50;;;;;;;;;;5113588;28;20411;-57
2023/07/11 12:59:19;;;;;;;4.20;3.67;;;;;;;;;;5098948;28;20056;-57
2023/07/11 13:01:46;;;;;;;4.20;3.27;;;;;;;;;;5093568;28;20398;-58
2023/07/11 13:04:23;;;;;;;5.60;4.13;;;;;;;;;;5093480;28;20046;-57
2023/07/11 13:06:54;;;;;;;5.93;4.67;;;;;;;;;;5089991;28;20498;-57
2023/07/11 13:09:24;;;;;;;9.10;8.10;;;;;;;;;;5103328;28;20039;-57
2023/07/11 13:11:52;;;;;;;6.73;4.43;;;;;;;;;;5107973;28;20129;-57
2023/07/11 13:14:20;;;;;;;6.27;4.10;;;;;;;;;;5091859;28;20040;-57
2023/07/11 13:16:47;;;;;;;5.87;4.30;;;;;;;;;;5090504;28;20024;-58
2023/07/11 13:19:15;;;;;;;7.93;4.53;;;;;;;;;;5093265;28;20101;-57
2023/07/11 13:21:43;;;;;;;4.50;3.47;;;;;;;;;;5092861;28;20463;-58
2023/07/11 13:24:23;;;;;;;5.30;3.30;;;;;;;;;;5106690;28;20031;-59
2023/07/11 13:26:51;;;;;;;6.23;4.13;;;;;;;;;;5104264;28;20530;-57
2023/07/11 13:29:19;;;;;;;4.87;3.90;;;;;;;;;;5100729;28;20040;-58
2023/07/11 13:31:47;;;;;;;4.20;3.47;;;;;;;;;;5107442;28;20096;-58
2023/07/11 13:34:21;;;;;;;7.80;6.07;;;;;;;;;;5107518;28;20497;-58
2023/07/11 13:36:50;;;;;;;5.50;4.77;;;;;;;;;;5107934;28;21410;-58
2023/07/11 13:39:17;;;;;;;6.07;4.30;;;;;;;;;;5106864;28;20032;-57
2023/07/11 13:41:49;;;;;;;4.93;4.00;;;;;;;;;;5092968;28;20024;-57
2023/07/11 13:44:20;;;;;;;3.97;2.50;;;;;;;;;;5107742;28;20028;-58
2023/07/11 13:46:47;;;;;;;6.23;3.10;;;;;;;;;;5103347;28;20020;-57
2023/07/11 13:49:24;;;;;;;4.97;3.53;;;;;;;;;;5090358;28;20029;-57
2023/07/11 13:51:58;;;;;;;3.30;2.87;;;;;;;;;;5085984;28;20039;-58
2023/07/11 13:54:30;;;;;;;6.37;3.57;;;;;;;;;;5098334;28;20081;-58
2023/07/11 13:56:57;;;;;;;5.83;4.30;;;;;;;;;;5066392;28;20082;-58
2023/07/11 13:59:24;;;;;;;6.53;4.50;;;;;;;;;;5066346;28;20037;-58
2023/07/11 14:01:51;;;;;;;4.47;3.60;;;;;;;;;;5090372;28;20027;-58
2023/07/11 14:04:21;;;;;;;10.50;4.20;;;;;;;;;;5090767;28;20035;-57
2023/07/11 14:06:47;;;;;;;7.23;4.73;;;;;;;;;;5092393;28;20437;-58
2023/07/11 14:09:22;;;;;;;19.17;4.90;;;;;;;;;;5092629;28;20364;-58
2023/07/11 14:11:49;;;;;;;5.22;4.10;;;;;;;;;;5110210;28;20034;-58
2023/07/11 14:14:17;;;;;;;7.03;4.67;;;;;;;;;;5089193;28;20032;-58
2023/07/11 14:16:44;;;;;;;5.50;3.60;;;;;;;;;;5087019;28;20020;-58
2023/07/11 14:19:32;;;;;;;13.27;4.67;;;;;;;;;;5087098;28;20044;-58
2023/07/11 14:22:00;;;;;;;3.97;3.17;;;;;;;;;;5086469;28;20032;-59
2023/07/11 14:24:28;;;;;;;3.90;3.10;;;;;;;;;;5105584;28;20046;-57
2023/07/11 14:26:55;;;;;;;4.37;3.00;;;;;;;;;;5112531;28;20048;-57
2023/07/11 14:29:26;;;;;;;4.00;2.57;;;;;;;;;;5112645;28;20043;-58
2023/07/11 14:31:56;;;;;;;4.27;3.20;;;;;;;;;;5112134;28;20030;-58
2023/07/11 14:34:24;;;;;;;4.27;3.60;;;;;;;;;;5098214;28;20024;-58
2023/07/11 14:36:52;;;;;;;4.27;3.30;;;;;;;;;;5086457;28;20024;-58
2023/07/11 14:39:19;;;;;;;3.90;2.83;;;;;;;;;;5085977;28;20039;-60
2023/07/11 14:41:49;;;;;;;3.97;2.90;;;;;;;;;;5086358;28;20020;-60
2023/07/11 14:44:16;;;;;;;4.27;3.30;;;;;;;;;;5095822;28;20032;-58
2023/07/11 14:46:43;;;;;;;4.67;3.30;;;;;;;;;;5112167;28;20496;-58
2023/07/11 14:49:12;;;;;;;4.40;2.90;;;;;;;;;;5112033;28;20020;-58
2023/07/11 14:51:39;;;;;;;3.70;2.47;;;;;;;;;;5112301;28;20034;-58
2023/07/11 14:54:13;;;;;;;6.17;2.23;;;;;;;;;;5111755;28;20036;-58